createdAt,value
2022-12-05T00:02:06.959Z,97309.00
2022-12-05T00:04:35.340Z,97312.47
2022-12-05T00:07:03.994Z,97307.19
2022-12-05T00:09:32.243Z,97313.47
2022-12-05T00:12:01.942Z,97320.38
2022-12-05T00:14:30.167Z,97331.91
2022-12-05T00:16:58.472Z,97334.56
2022-12-05T00:19:26.795Z,97332.59
2022-12-05T00:21:55.065Z,97337.06
2022-12-05T00:24:23.330Z,97344.13
2022-12-05T00:26:51.546Z,97330.94
2022-12-05T00:29:21.182Z,97331.91
2022-12-05T00:31:49.506Z,97315.13
2022-12-05T00:34:17.869Z,97329.28
2022-12-05T00:36:46.129Z,97336.34
2022-12-05T00:39:15.433Z,97331.22
2022-12-05T00:41:44.849Z,97341.09
2022-12-05T00:44:14.138Z,97341.75
2022-12-05T00:46:44.172Z,97347.16
2022-12-05T00:49:13.723Z,97333.16
2022-12-05T00:51:44.212Z,97335.09
2022-12-05T00:54:16.125Z,97337.72
2022-12-05T00:56:45.478Z,97346.50
2022-12-05T00:59:18.655Z,97343.13
2022-12-05T01:01:51.112Z,97340.63
2022-12-05T01:04:23.323Z,97344.94
2022-12-05T01:06:52.574Z,97348.69
2022-12-05T01:09:22.375Z,97356.84
2022-12-05T01:11:51.179Z,97366.28
2022-12-05T01:14:22.676Z,97372.53
2022-12-05T01:16:55.567Z,97367.53
2022-12-05T01:19:27.312Z,97371.97
2022-12-05T01:21:56.444Z,97371.16
2022-12-05T01:24:26.475Z,97380.72
2022-12-05T01:26:56.362Z,97386.00
2022-12-05T01:29:25.961Z,97390.41
2022-12-05T01:31:56.377Z,97387.09
2022-12-05T01:34:25.090Z,97391.53
2022-12-05T01:36:53.386Z,97392.50
2022-12-05T01:39:21.702Z,97395.97
2022-12-05T01:41:51.873Z,97396.09
2022-12-05T01:45:05.658Z,97411.91
2022-12-05T01:47:37.649Z,97419.13
2022-12-05T01:50:08.043Z,97410.38
2022-12-05T01:52:36.919Z,97410.63
2022-12-05T01:55:11.932Z,97421.78
2022-12-05T01:57:40.712Z,97418.16
2022-12-05T02:00:14.326Z,97421.78
2022-12-05T02:02:50.677Z,97426.91
2022-12-05T02:05:23.772Z,97421.78
2022-12-05T02:07:52.788Z,97423.31
2022-12-05T02:10:21.487Z,97415.75
2022-12-05T02:12:53.420Z,97411.22
2022-12-05T02:15:38.028Z,97413.13
2022-12-05T02:18:26.511Z,97411.47
2022-12-05T02:21:36.740Z,97402.97
2022-12-05T02:24:26.175Z,97422.41
2022-12-05T02:27:09.040Z,97437.38
2022-12-05T02:30:06.809Z,97432.09
2022-12-05T02:33:06.406Z,97428.75
2022-12-05T02:35:51.997Z,97439.28
2022-12-05T02:38:29.394Z,97440.41
2022-12-05T02:41:10.489Z,97448.19
2022-12-05T02:43:42.931Z,97434.16
2022-12-05T02:46:18.105Z,97430.00
2022-12-05T02:48:49.075Z,97443.03
2022-12-05T02:51:22.506Z,97443.03
2022-12-05T02:53:52.752Z,97446.78
2022-12-05T02:56:21.944Z,97456.59
2022-12-05T02:58:56.672Z,97455.75
2022-12-05T03:01:31.571Z,97474.34
2022-12-05T03:04:04.084Z,97468.38
2022-12-05T03:06:36.542Z,97473.91
2022-12-05T03:09:11.095Z,97459.16
2022-12-05T03:11:43.753Z,97466.41
2022-12-05T03:14:21.587Z,97480.09
2022-12-05T03:16:54.335Z,97476.03
2022-12-05T03:19:28.382Z,97486.25
2022-12-05T03:22:02.648Z,97487.22
2022-12-05T03:24:32.930Z,97491.63
2022-12-05T03:27:09.503Z,97493.69
2022-12-05T03:29:43.842Z,97490.09
2022-12-05T03:32:22.609Z,97480.50
2022-12-05T03:35:02.521Z,97480.63
2022-12-05T03:37:43.147Z,97492.88
2022-12-05T03:40:24.595Z,97480.88
2022-12-05T03:42:58.817Z,97480.88
2022-12-05T03:45:39.011Z,97486.41
2022-12-05T03:48:16.300Z,97498.78
2022-12-05T03:50:48.528Z,97493.50
2022-12-05T03:53:22.261Z,97503.91
2022-12-05T03:56:00.489Z,97505.56
2022-12-05T03:58:34.138Z,97508.19
2022-12-05T04:01:06.837Z,97515.50
2022-12-05T04:03:41.983Z,97521.25
2022-12-05T04:06:18.601Z,97530.13
2022-12-05T04:08:52.202Z,97524.00
2022-12-05T04:11:24.768Z,97526.50
2022-12-05T04:13:56.618Z,97533.69
2022-12-05T04:16:46.772Z,97540.78
2022-12-05T04:19:23.155Z,97543.66
2022-12-05T04:21:54.745Z,97553.34
2022-12-05T04:24:44.319Z,97549.06
2022-12-05T04:27:24.078Z,97558.03
2022-12-05T04:30:03.100Z,97564.63
2022-12-05T04:32:39.788Z,97555.06
2022-12-05T04:35:16.673Z,97581.28
2022-12-05T04:37:51.307Z,97597.09
2022-12-05T04:40:26.277Z,97587.50
2022-12-05T04:42:56.244Z,97596.13
2022-12-05T04:45:27.240Z,97604.03
2022-12-05T04:48:01.384Z,97601.50
2022-12-05T04:50:34.870Z,97605.09
2022-12-05T04:53:04.511Z,97609.66
2022-12-05T04:55:36.544Z,97600.09
2022-12-05T04:58:09.427Z,97594.94
2022-12-05T05:00:47.946Z,97601.06
2022-12-05T05:03:22.883Z,97595.78
2022-12-05T05:05:56.309Z,97594.47
2022-12-05T05:08:30.041Z,97596.28
2022-12-05T05:11:08.740Z,97595.56
2022-12-05T05:13:36.995Z,97602.50
2022-12-05T05:16:06.101Z,97611.34
2022-12-05T05:18:34.993Z,97620.09
2022-12-05T05:21:04.701Z,97615.78
2022-12-05T05:23:32.941Z,97607.88
2022-12-05T05:26:01.187Z,97603.59
2022-12-05T05:28:29.568Z,97609.69
2022-12-05T05:31:03.305Z,97614.22
2022-12-05T05:33:31.843Z,97608.13
2022-12-05T05:36:06.451Z,97605.59
2022-12-05T05:38:38.188Z,97601.44
2022-12-05T05:41:07.302Z,97614.59
2022-12-05T05:43:35.646Z,97604.91
2022-12-05T05:46:05.827Z,97620.00
2022-12-05T05:48:34.274Z,97617.47
2022-12-05T05:51:04.953Z,97616.75
2022-12-05T05:53:33.740Z,97615.94
2022-12-05T05:56:04.531Z,97620.34
2022-12-05T05:58:32.860Z,97625.63
2022-12-05T06:01:05.454Z,97631.84
2022-12-05T06:03:34.371Z,97637.22
2022-12-05T06:06:07.414Z,97640.69
2022-12-05T06:08:37.500Z,97638.06
2022-12-05T06:11:07.775Z,97646.19
2022-12-05T06:13:36.498Z,97646.44
2022-12-05T06:16:07.683Z,97647.16
2022-12-05T06:18:36.389Z,97650.88
2022-12-05T06:21:11.768Z,97650.25
2022-12-05T06:23:44.270Z,97659.38
2022-12-05T06:26:15.066Z,97659.84
2022-12-05T06:28:44.474Z,97663.53
2022-12-05T06:31:16.576Z,97673.34
2022-12-05T06:33:45.717Z,97666.53
2022-12-05T06:36:18.890Z,97673.59
2022-12-05T06:38:47.294Z,97678.00
2022-12-05T06:41:17.676Z,97684.22
2022-12-05T06:43:46.013Z,97673.72
2022-12-05T06:46:16.320Z,97676.34
2022-12-05T06:48:44.895Z,97678.00
2022-12-05T06:51:17.154Z,97680.88
2022-12-05T06:53:45.718Z,97676.47
2022-12-05T06:56:17.189Z,97678.34
2022-12-05T06:58:46.767Z,97689.00
2022-12-05T07:01:34.466Z,97690.31
2022-12-05T07:04:03.181Z,97696.44
2022-12-05T07:06:33.897Z,97702.75
2022-12-05T07:09:02.521Z,97712.06
2022-12-05T07:11:30.933Z,97718.75
2022-12-05T07:13:59.437Z,97727.78
2022-12-05T07:16:27.789Z,97732.34
2022-12-05T07:18:56.363Z,97731.50
2022-12-05T07:21:25.274Z,97743.81
2022-12-05T07:23:55.721Z,97739.50
2022-12-05T07:26:25.880Z,97748.25
2022-12-05T07:28:57.212Z,97754.09
2022-12-05T07:31:26.507Z,97756.72
2022-12-05T07:33:54.875Z,97756.50
2022-12-05T07:36:24.096Z,97762.59
2022-12-05T07:38:59.390Z,97757.22
2022-12-05T07:41:30.747Z,97762.38
2022-12-05T07:44:00.881Z,97769.19
2022-12-05T07:46:30.495Z,97744.94
2022-12-05T07:48:58.857Z,97758.44
2022-12-05T07:51:27.571Z,97760.25
2022-12-05T07:53:57.327Z,97764.66
2022-12-05T07:56:25.612Z,97773.50
2022-12-05T07:58:54.892Z,97776.84
2022-12-05T08:01:25.424Z,97782.13
2022-12-05T08:03:55.144Z,97789.88
2022-12-05T08:06:26.380Z,97788.97
2022-12-05T08:08:57.035Z,97791.25
2022-12-05T08:11:28.683Z,97786.09
2022-12-05T08:13:57.474Z,97791.34
2022-12-05T08:16:28.622Z,97796.50
2022-12-05T08:18:57.466Z,97794.59
2022-12-05T08:21:26.232Z,97790.91
2022-12-05T08:23:56.841Z,97788.03
2022-12-05T08:26:27.546Z,97780.97
2022-12-05T08:28:58.950Z,97781.59
2022-12-05T08:31:30.243Z,97779.81
2022-12-05T08:34:00.046Z,97771.69
2022-12-05T08:36:30.247Z,97772.63
2022-12-05T08:39:02.022Z,97772.03
2022-12-05T08:41:31.159Z,97790.56
2022-12-05T08:44:03.011Z,97785.31
2022-12-05T08:46:31.840Z,97783.41
2022-12-05T08:49:00.168Z,97792.00
2022-12-05T08:51:28.576Z,97798.00
2022-12-05T08:53:57.351Z,97796.56
2022-12-05T08:56:27.711Z,97792.84
2022-12-05T08:59:02.876Z,97787.59
2022-12-05T09:01:34.292Z,97783.19
2022-12-05T09:04:04.943Z,97788.31
2022-12-05T09:06:34.427Z,97779.34
2022-12-05T09:09:06.433Z,97790.00
2022-12-05T09:11:40.784Z,97789.88
2022-12-05T09:14:09.583Z,97789.88
2022-12-05T09:16:39.849Z,97796.00
2022-12-05T09:19:14.724Z,97786.28
2022-12-05T09:21:44.285Z,97791.53
2022-12-05T09:24:14.447Z,97796.00
2022-12-05T09:26:44.530Z,97802.06
2022-12-05T09:29:17.090Z,97815.13
2022-12-05T09:31:48.110Z,97808.19
2022-12-05T09:34:18.394Z,97802.91
2022-12-05T09:36:49.762Z,97802.06
2022-12-05T09:39:18.084Z,97817.03
2022-12-05T09:42:18.536Z,97829.47
2022-12-05T09:45:17.614Z,97825.28
2022-12-05T09:47:56.284Z,97823.69
2022-12-05T09:50:28.390Z,97829.81
2022-12-05T09:53:15.122Z,97826.44
2022-12-05T09:55:48.538Z,97826.69
2022-12-05T09:58:41.988Z,97821.06
2022-12-05T10:01:34.981Z,97815.06
2022-12-05T10:04:29.239Z,97812.66
2022-12-05T10:07:08.723Z,97813.38
2022-12-05T10:09:56.631Z,97806.22
2022-12-05T10:12:47.373Z,97810.41
2022-12-05T10:15:24.802Z,97819.28
2022-12-05T10:18:00.370Z,97811.25
2022-12-05T10:20:34.383Z,97810.31
2022-12-05T10:23:08.006Z,97811.03
2022-12-05T10:25:36.987Z,97787.19
2022-12-05T10:28:14.242Z,97792.22
2022-12-05T10:30:44.330Z,97792.00
2022-12-05T10:33:16.831Z,97779.69
2022-12-05T10:35:45.338Z,97771.44
2022-12-05T10:38:25.188Z,97772.06
2022-12-05T10:40:58.187Z,97771.94
2022-12-05T10:43:29.163Z,97768.22
2022-12-05T10:46:00.233Z,97769.09
2022-12-05T10:48:29.175Z,97780.94
2022-12-05T10:50:59.934Z,97776.63
2022-12-05T10:53:30.949Z,97775.44
2022-12-05T10:56:29.455Z,97772.56
2022-12-05T10:58:57.250Z,97768.84
2022-12-05T11:01:28.084Z,97763.34
2022-12-05T11:04:00.046Z,97769.09
2022-12-05T11:06:31.063Z,97762.88
2022-12-05T11:09:05.647Z,97758.09
2022-12-05T11:11:35.121Z,97756.03
2022-12-05T11:14:06.950Z,97754.13
2022-12-05T11:16:39.610Z,97754.00
2022-12-05T11:19:26.608Z,97759.03
2022-12-05T11:21:55.663Z,97758.91
2022-12-05T11:24:28.989Z,97766.59
2022-12-05T11:26:59.796Z,97767.19
2022-12-05T11:29:35.645Z,97762.75
2022-12-05T11:32:07.887Z,97780.00
2022-12-05T11:34:43.732Z,97775.78
2022-12-05T11:37:21.767Z,97771.13
2022-12-05T11:39:49.988Z,97767.53
2022-12-05T11:42:30.419Z,97758.69
2022-12-05T11:45:17.674Z,97755.09
2022-12-05T11:48:08.647Z,97763.47
2022-12-05T11:50:45.973Z,97776.53
2022-12-05T11:53:45.752Z,97772.06
2022-12-05T11:56:33.515Z,97771.84
2022-12-05T11:59:23.524Z,97761.41
2022-12-05T12:02:04.284Z,97769.69
2022-12-05T12:04:48.455Z,97758.06
2022-12-05T12:07:44.735Z,97765.72
2022-12-05T12:10:26.643Z,97753.38
2022-12-05T12:13:21.892Z,97757.56
2022-12-05T12:16:07.953Z,97762.00
2022-12-05T12:19:04.448Z,97761.63
2022-12-05T12:21:56.532Z,97761.50
2022-12-05T12:24:36.759Z,97764.72
2022-12-05T12:27:17.034Z,97766.28
2022-12-05T12:30:00.707Z,97761.84
2022-12-05T12:32:39.704Z,97759.09
2022-12-05T12:35:33.746Z,97755.38
2022-12-05T12:38:33.078Z,97753.47
2022-12-05T12:41:10.961Z,97755.00
2022-12-05T12:43:54.108Z,97755.63
2022-12-05T12:46:42.573Z,97746.63
2022-12-05T12:49:31.517Z,97747.34
2022-12-05T12:52:05.013Z,97746.25
2022-12-05T12:55:04.610Z,97748.88
2022-12-05T12:57:53.215Z,97747.94
2022-12-05T13:00:32.173Z,97740.72
2022-12-05T13:03:11.417Z,97734.50
2022-12-05T13:05:44.433Z,97733.53
2022-12-05T13:08:23.093Z,97736.06
2022-12-05T13:10:53.722Z,97748.13
2022-12-05T13:13:31.710Z,97749.84
2022-12-05T13:16:03.160Z,97744.28
2022-12-05T13:18:31.582Z,97751.25
2022-12-05T13:21:03.135Z,97746.78
2022-12-05T13:23:36.017Z,97758.06
2022-12-05T13:26:12.678Z,97749.31
2022-12-05T13:28:50.482Z,97747.38
2022-12-05T13:31:19.475Z,97753.38
2022-12-05T13:33:50.498Z,97750.75
2022-12-05T13:36:38.380Z,97751.31
2022-12-05T13:39:32.403Z,97762.72
2022-12-05T13:42:14.607Z,97753.13
2022-12-05T13:44:46.515Z,97754.94
2022-12-05T13:47:40.361Z,97758.41
2022-12-05T13:50:16.508Z,97763.56
2022-12-05T13:52:50.364Z,97760.94
2022-12-05T13:55:32.264Z,97760.81
2022-12-05T13:58:42.649Z,97750.25
2022-12-05T14:01:55.663Z,97746.88
2022-12-05T14:04:48.068Z,97745.22
2022-12-05T14:07:43.924Z,97743.53
2022-12-05T14:10:16.672Z,97752.16
2022-12-05T14:12:52.660Z,97748.56
2022-12-05T14:15:35.993Z,97754.69
2022-12-05T14:18:13.342Z,97759.09
2022-12-05T14:20:53.446Z,97744.13
2022-12-05T14:23:51.630Z,97751.06
2022-12-05T14:26:37.527Z,97749.28
2022-12-05T14:29:45.171Z,97747.47
2022-12-05T14:32:26.219Z,97740.50
2022-12-05T14:34:59.874Z,97743.88
2022-12-05T14:37:32.282Z,97747.34
2022-12-05T14:40:02.311Z,97746.38
2022-12-05T14:42:54.428Z,97745.66
2022-12-05T14:45:33.859Z,97737.75
2022-12-05T14:48:06.623Z,97740.38
2022-12-05T14:50:45.570Z,97747.47
2022-12-05T14:53:26.703Z,97742.47
2022-12-05T14:55:59.676Z,97750.13
2022-12-05T14:58:36.660Z,97754.69
2022-12-05T15:01:09.097Z,97748.56
2022-12-05T15:03:43.381Z,97759.09
2022-12-05T15:06:17.884Z,97767.03
2022-12-05T15:08:51.412Z,97771.59
2022-12-05T15:11:29.228Z,97769.09
2022-12-05T15:14:03.812Z,97769.34
2022-12-05T15:16:35.491Z,97763.94
2022-12-05T15:19:12.605Z,97752.66
2022-12-05T15:21:44.654Z,97736.84
2022-12-05T15:24:16.474Z,97745.59
2022-12-05T15:26:48.988Z,97737.69
2022-12-05T15:29:26.848Z,97757.09
2022-12-05T15:31:57.585Z,97758.78
2022-12-05T15:34:31.391Z,97757.22
2022-12-05T15:37:06.032Z,97773.44
2022-12-05T15:39:54.554Z,97771.75
2022-12-05T15:42:29.498Z,97769.38
2022-12-05T15:45:23.872Z,97768.78
2022-12-05T15:47:56.783Z,97774.19
2022-12-05T15:50:40.713Z,97780.28
2022-12-05T15:53:17.139Z,97776.72
2022-12-05T15:55:49.754Z,97772.25
2022-12-05T15:58:25.664Z,97777.28
2022-12-05T16:00:58.834Z,97772.00
2022-12-05T16:03:41.756Z,97779.78
2022-12-05T16:06:18.445Z,97783.16
2022-12-05T16:08:47.812Z,97782.19
2022-12-05T16:11:17.241Z,97782.06
2022-12-05T16:13:47.740Z,97781.94
2022-12-05T16:16:20.526Z,97780.13
2022-12-05T16:18:56.023Z,97780.94
2022-12-05T16:21:39.095Z,97765.13
2022-12-05T16:24:15.216Z,97781.94
2022-12-05T16:26:43.888Z,97778.44
2022-12-05T16:29:28.841Z,97782.91
2022-12-05T16:31:58.076Z,97782.06
2022-12-05T16:34:28.385Z,97784.69
2022-12-05T16:36:58.607Z,97779.53
2022-12-05T16:39:29.263Z,97776.91
2022-12-05T16:41:57.970Z,97774.25
2022-12-05T16:45:03.489Z,97776.09
2022-12-05T16:48:05.167Z,97778.00
2022-12-05T16:50:35.835Z,97778.84
2022-12-05T16:53:19.826Z,97777.03
2022-12-05T16:55:48.583Z,97787.44
2022-12-05T16:58:23.245Z,97788.31
2022-12-05T17:00:51.922Z,97787.31
2022-12-05T17:03:36.460Z,97790.81
2022-12-05T17:06:05.214Z,97795.38
2022-12-05T17:08:34.945Z,97803.03
2022-12-05T17:11:03.961Z,97797.63
2022-12-05T17:13:33.207Z,97792.22
2022-12-05T17:16:01.617Z,97786.09
2022-12-05T17:18:32.097Z,97781.56
2022-12-05T17:21:03.095Z,97789.47
2022-12-05T17:23:31.422Z,97785.84
2022-12-05T17:26:01.327Z,97792.97
2022-12-05T17:28:29.872Z,97793.78
2022-12-05T17:30:58.304Z,97799.91
2022-12-05T17:33:26.695Z,97801.69
2022-12-05T17:35:54.984Z,97799.16
2022-12-05T17:38:23.522Z,97796.53
2022-12-05T17:40:51.851Z,97798.34
2022-12-05T17:43:25.113Z,97790.44
2022-12-05T17:45:54.884Z,97782.78
2022-12-05T17:48:23.636Z,97792.22
2022-12-05T17:50:52.100Z,97791.25
2022-12-05T17:53:22.501Z,97787.81
2022-12-05T17:55:51.435Z,97787.81
2022-12-05T17:58:21.146Z,97794.75
2022-12-05T18:00:49.569Z,97791.13
2022-12-05T18:03:19.294Z,97789.34
2022-12-05T18:05:48.348Z,97794.63
2022-12-05T18:08:17.633Z,97797.25
2022-12-05T18:10:48.934Z,97790.19
2022-12-05T18:13:18.570Z,97789.94
2022-12-05T18:15:50.077Z,97789.94
2022-12-05T18:18:19.499Z,97779.25
2022-12-05T18:20:47.864Z,97779.38
2022-12-05T18:23:16.303Z,97779.97
2022-12-05T18:25:44.683Z,97781.66
2022-12-05T18:28:17.802Z,97780.69
2022-12-05T18:30:49.384Z,97778.16
2022-12-05T18:33:17.716Z,97780.69
2022-12-05T18:35:46.031Z,97783.19
2022-12-05T18:38:14.732Z,97785.84
2022-12-05T18:40:43.049Z,97798.28
2022-12-05T18:43:11.344Z,97794.97
2022-12-05T18:45:39.952Z,97803.00
2022-12-05T18:48:31.384Z,97798.66
2022-12-05T18:51:09.320Z,97798.22
2022-12-05T18:53:37.728Z,97798.22
2022-12-05T18:56:24.531Z,97800.03
2022-12-05T18:58:58.586Z,97793.06
2022-12-05T19:01:28.687Z,97795.59
2022-12-05T19:04:00.485Z,97797.25
2022-12-05T19:06:32.124Z,97802.28
2022-12-05T19:09:04.273Z,97806.72
2022-12-05T19:11:33.905Z,97809.34
2022-12-05T19:14:05.607Z,97811.28
2022-12-05T19:16:35.822Z,97814.06
2022-12-05T19:19:09.074Z,97798.47
2022-12-05T19:21:38.327Z,97803.63
2022-12-05T19:24:08.761Z,97796.78
2022-12-05T19:26:37.217Z,97795.13
2022-12-05T19:29:06.079Z,97791.91
2022-12-05T19:31:35.823Z,97798.97
2022-12-05T19:34:08.439Z,97803.41
2022-12-05T19:36:39.327Z,97798.13
2022-12-05T19:39:15.033Z,97789.53
2022-12-05T19:41:43.936Z,97784.50
2022-12-05T19:44:12.870Z,97790.59
2022-12-05T19:46:41.351Z,97795.16
2022-12-05T19:49:14.519Z,97787.38
2022-12-05T19:51:43.347Z,97788.31
2022-12-05T19:54:17.739Z,97794.56
2022-12-05T19:56:46.134Z,97799.00
2022-12-05T19:59:16.795Z,97802.59
2022-12-05T20:01:45.759Z,97798.28
2022-12-05T20:04:17.227Z,97797.69
2022-12-05T20:06:47.297Z,97801.06
2022-12-05T20:09:18.253Z,97793.25
2022-12-05T20:11:54.597Z,97798.41
2022-12-05T20:14:26.001Z,97797.69
2022-12-05T20:16:54.595Z,97799.22
2022-12-05T20:19:25.037Z,97800.94
2022-12-05T20:21:55.369Z,97799.13
2022-12-05T20:24:23.683Z,97793.84
2022-12-05T20:26:52.928Z,97797.19
2022-12-05T20:29:21.251Z,97803.31
2022-12-05T20:31:56.654Z,97801.63
2022-12-05T20:34:26.518Z,97793.72
2022-12-05T20:36:54.840Z,97794.56
2022-12-05T20:39:24.726Z,97803.31
2022-12-05T20:41:53.053Z,97789.28
2022-12-05T20:44:21.642Z,97792.78
2022-12-05T20:46:51.385Z,97791.06
2022-12-05T20:49:19.774Z,97794.69
2022-12-05T20:51:49.571Z,97790.38
2022-12-05T20:54:18.457Z,97782.34
2022-12-05T20:56:47.256Z,97775.88
2022-12-05T20:59:15.954Z,97788.81
2022-12-05T21:01:44.591Z,97796.84
2022-12-05T21:04:13.216Z,97790.03
2022-12-05T21:06:43.778Z,97797.06
2022-12-05T21:09:18.617Z,97786.63
2022-12-05T21:11:47.014Z,97781.38
2022-12-05T21:14:15.330Z,97787.59
2022-12-05T21:16:43.665Z,97793.84
2022-12-05T21:19:12.210Z,97791.47
2022-12-05T21:21:40.748Z,97793.13
2022-12-05T21:24:09.484Z,97793.25
2022-12-05T21:26:40.006Z,97795.88
2022-12-05T21:29:10.655Z,97797.91
2022-12-05T21:31:42.799Z,97793.59
2022-12-05T21:34:16.184Z,97801.63
2022-12-05T21:36:45.520Z,97804.28
2022-12-05T21:39:14.119Z,97802.72
2022-12-05T21:41:43.740Z,97806.31
2022-12-05T21:44:12.015Z,97807.28
2022-12-05T21:46:40.302Z,97803.91
2022-12-05T21:49:08.799Z,97803.22
2022-12-05T21:51:37.080Z,97811.00
2022-12-05T21:54:05.664Z,97806.91
2022-12-05T21:56:33.985Z,97817.44
2022-12-05T21:59:03.641Z,97821.06
2022-12-05T22:01:31.964Z,97819.50
2022-12-05T22:04:00.856Z,97821.28
2022-12-05T22:06:30.053Z,97828.50
2022-12-05T22:08:58.551Z,97836.41
2022-12-05T22:11:27.239Z,97833.78
2022-12-05T22:13:55.504Z,97835.56
2022-12-05T22:16:30.807Z,97839.06
2022-12-05T22:19:00.587Z,97832.94
2022-12-05T22:21:28.941Z,97829.44
2022-12-05T22:23:57.887Z,97826.00
2022-12-05T22:26:27.920Z,97825.16
2022-12-05T22:28:57.550Z,97822.50
2022-12-05T22:31:27.216Z,97819.88
2022-12-05T22:33:55.468Z,97816.16
2022-12-05T22:36:24.276Z,97822.38
2022-12-05T22:38:52.513Z,97820.59
2022-12-05T22:41:23.538Z,97822.28
2022-12-05T22:43:58.570Z,97822.38
2022-12-05T22:46:29.815Z,97818.78
2022-12-05T22:48:58.392Z,97823.94
2022-12-05T22:51:27.847Z,97819.63
2022-12-05T22:53:56.619Z,97819.50
2022-12-05T22:56:28.006Z,97823.13
2022-12-05T22:58:57.468Z,97821.28
2022-12-05T23:01:30.753Z,97821.28
2022-12-05T23:04:01.436Z,97823.13
2022-12-05T23:06:31.743Z,97817.00
2022-12-05T23:09:00.892Z,97817.97
2022-12-05T23:11:30.822Z,97826.69
2022-12-05T23:14:02.220Z,97825.03
2022-12-05T23:16:34.684Z,97822.38
2022-12-05T23:19:05.980Z,97823.34
2022-12-05T23:21:36.416Z,97820.00
2022-12-05T23:24:07.610Z,97819.16
2022-12-05T23:26:39.978Z,97816.50
2022-12-05T23:29:08.633Z,97807.78
2022-12-05T23:31:38.254Z,97803.34
2022-12-05T23:34:06.525Z,97811.34
2022-12-05T23:36:35.894Z,97807.91
2022-12-05T23:39:05.167Z,97801.91
2022-12-05T23:41:33.678Z,97796.53
2022-12-05T23:44:02.235Z,97798.31
2022-12-05T23:46:30.815Z,97797.59
2022-12-05T23:49:00.516Z,97795.78
2022-12-05T23:51:30.515Z,97790.53
2022-12-05T23:54:01.052Z,97794.97
2022-12-05T23:56:31.439Z,97799.41
2022-12-05T23:59:00.073Z,97792.47
